sensor_id;sensor_type;location;lat;lon;timestamp;pressure;altitude;pressure_sealevel;temperature;humidity
20825;BME280;10573;50.936;6.978;2023-02-22T00:01:41;101156.75;;;7.75;81.47
20825;BME280;10573;50.936;6.978;2023-02-22T00:04:15;101158.63;;;7.85;80.61
20825;BME280;10573;50.936;6.978;2023-02-22T00:06:44;101155.84;;;7.87;80.05
20825;BME280;10573;50.936;6.978;2023-02-22T00:09:09;101155.44;;;7.80;79.86
20825;BME280;10573;50.936;6.978;2023-02-22T00:11:35;101152.09;;;7.52;80.33
20825;BME280;10573;50.936;6.978;2023-02-22T00:14:00;101154.44;;;7.57;80.98
20825;BME280;10573;50.936;6.978;2023-02-22T00:16:26;101145.97;;;7.62;80.61
20825;BME280;10573;50.936;6.978;2023-02-22T00:18:52;101147.63;;;7.76;80.39
20825;BME280;10573;50.936;6.978;2023-02-22T00:21:18;101143.44;;;7.71;80.61
20825;BME280;10573;50.936;6.978;2023-02-22T00:23:44;101143.59;;;7.81;79.99
20825;BME280;10573;50.936;6.978;2023-02-22T00:26:17;101142.44;;;7.72;79.64
20825;BME280;10573;50.936;6.978;2023-02-22T00:28:47;101137.16;;;7.47;79.84
20825;BME280;10573;50.936;6.978;2023-02-22T00:31:13;101142.09;;;7.53;79.92
20825;BME280;10573;50.936;6.978;2023-02-22T00:33:39;101138.94;;;7.35;80.58
20825;BME280;10573;50.936;6.978;2023-02-22T00:36:04;101133.91;;;7.17;80.79
20825;BME280;10573;50.936;6.978;2023-02-22T00:38:30;101132.44;;;7.37;80.92
20825;BME280;10573;50.936;6.978;2023-02-22T00:40:55;101133.31;;;7.25;80.73
20825;BME280;10573;50.936;6.978;2023-02-22T00:43:20;101124.63;;;7.33;81.20
20825;BME280;10573;50.936;6.978;2023-02-22T00:45:46;101127.13;;;7.12;81.41
20825;BME280;10573;50.936;6.978;2023-02-22T00:48:11;101125.31;;;7.23;81.92
20825;BME280;10573;50.936;6.978;2023-02-22T00:50:37;101126.09;;;7.50;81.46
20825;BME280;10573;50.936;6.978;2023-02-22T00:53:03;101127.88;;;7.38;81.22
20825;BME280;10573;50.936;6.978;2023-02-22T00:55:29;101120.81;;;7.35;82.02
20825;BME280;10573;50.936;6.978;2023-02-22T00:57:55;101114.38;;;7.49;81.82
20825;BME280;10573;50.936;6.978;2023-02-22T01:00:28;101115.63;;;7.56;81.24
20825;BME280;10573;50.936;6.978;2023-02-22T01:02:54;101108.78;;;7.39;81.70
20825;BME280;10573;50.936;6.978;2023-02-22T01:05:21;101109.38;;;7.56;81.51
20825;BME280;10573;50.936;6.978;2023-02-22T01:07:47;101108.94;;;7.73;81.20
20825;BME280;10573;50.936;6.978;2023-02-22T01:10:13;101104.22;;;7.64;80.66
20825;BME280;10573;50.936;6.978;2023-02-22T01:12:41;101106.44;;;7.70;81.29
20825;BME280;10573;50.936;6.978;2023-02-22T01:15:07;101097.06;;;7.75;81.49
20825;BME280;10573;50.936;6.978;2023-02-22T01:17:34;101097.31;;;7.71;81.60
20825;BME280;10573;50.936;6.978;2023-02-22T01:20:00;101097.78;;;7.65;81.83
20825;BME280;10573;50.936;6.978;2023-02-22T01:22:25;101093.44;;;7.87;81.18
20825;BME280;10573;50.936;6.978;2023-02-22T01:24:52;101094.69;;;8.05;80.42
20825;BME280;10573;50.936;6.978;2023-02-22T01:27:19;101089.25;;;8.05;79.87
20825;BME280;10573;50.936;6.978;2023-02-22T01:29:44;101087.53;;;7.93;79.79
20825;BME280;10573;50.936;6.978;2023-02-22T01:32:09;101089.59;;;7.89;79.59
20825;BME280;10573;50.936;6.978;2023-02-22T01:34:36;101090.94;;;7.84;79.56
20825;BME280;10573;50.936;6.978;2023-02-22T01:37:02;101083.78;;;7.83;79.46
20825;BME280;10573;50.936;6.978;2023-02-22T01:39:27;101081.31;;;7.68;79.76
20825;BME280;10573;50.936;6.978;2023-02-22T01:41:52;101081.44;;;7.67;80.10
20825;BME280;10573;50.936;6.978;2023-02-22T01:44:20;101072.38;;;7.55;80.52
20825;BME280;10573;50.936;6.978;2023-02-22T01:46:45;101074.25;;;7.66;80.44
20825;BME280;10573;50.936;6.978;2023-02-22T01:49:10;101076.88;;;7.43;80.40
20825;BME280;10573;50.936;6.978;2023-02-22T01:51:41;101070.19;;;7.60;80.41
20825;BME280;10573;50.936;6.978;2023-02-22T01:56:34;101064.47;;;7.52;80.61
20825;BME280;10573;50.936;6.978;2023-02-22T01:59:01;101069.34;;;7.35;79.89
20825;BME280;10573;50.936;6.978;2023-02-22T02:01:28;101069.81;;;7.65;79.67
20825;BME280;10573;50.936;6.978;2023-02-22T02:03:54;101063.59;;;7.51;80.04
20825;BME280;10573;50.936;6.978;2023-02-22T02:06:22;101057.09;;;7.54;80.45
20825;BME280;10573;50.936;6.978;2023-02-22T02:08:51;101051.53;;;7.44;80.15
20825;BME280;10573;50.936;6.978;2023-02-22T02:11:20;101059.81;;;7.30;80.66
20825;BME280;10573;50.936;6.978;2023-02-22T02:13:48;101055.94;;;7.45;80.07
20825;BME280;10573;50.936;6.978;2023-02-22T02:16:13;101041.84;;;7.64;79.75
20825;BME280;10573;50.936;6.978;2023-02-22T02:18:39;101051.41;;;7.57;79.88
20825;BME280;10573;50.936;6.978;2023-02-22T02:34:31;101043.34;;;7.68;79.48
20825;BME280;10573;50.936;6.978;2023-02-22T02:39:26;101033.78;;;7.51;79.79
20825;BME280;10573;50.936;6.978;2023-02-22T02:41:53;101023.84;;;7.63;79.84
20825;BME280;10573;50.936;6.978;2023-02-22T02:47:05;101017.91;;;7.47;79.74
20825;BME280;10573;50.936;6.978;2023-02-22T02:49:36;101026.47;;;7.41;80.24
20825;BME280;10573;50.936;6.978;2023-02-22T02:52:03;101026.47;;;7.29;80.08
20825;BME280;10573;50.936;6.978;2023-02-22T02:54:29;101017.91;;;7.47;79.72
20825;BME280;10573;50.936;6.978;2023-02-22T02:56:55;101021.66;;;7.33;80.37
20825;BME280;10573;50.936;6.978;2023-02-22T02:59:25;101013.75;;;7.30;79.89
20825;BME280;10573;50.936;6.978;2023-02-22T03:07:13;101016.41;;;7.43;79.84
20825;BME280;10573;50.936;6.978;2023-02-22T03:09:50;101020.69;;;7.45;80.13
20825;BME280;10573;50.936;6.978;2023-02-22T03:14:48;101024.94;;;7.25;80.42
20825;BME280;10573;50.936;6.978;2023-02-22T03:17:25;101012.53;;;7.34;79.79
20825;BME280;10573;50.936;6.978;2023-02-22T03:19:57;101019.75;;;7.22;80.30
20825;BME280;10573;50.936;6.978;2023-02-22T03:22:32;101017.63;;;7.14;80.64
20825;BME280;10573;50.936;6.978;2023-02-22T03:25:02;101016.09;;;7.34;79.92
20825;BME280;10573;50.936;6.978;2023-02-22T03:27:43;101018.81;;;7.34;79.43
20825;BME280;10573;50.936;6.978;2023-02-22T03:30:15;101011.25;;;7.51;79.28
20825;BME280;10573;50.936;6.978;2023-02-22T03:32:43;101019.59;;;7.48;79.37
20825;BME280;10573;50.936;6.978;2023-02-22T03:35:11;101009.81;;;7.22;79.76
20825;BME280;10573;50.936;6.978;2023-02-22T03:37:39;101010.81;;;7.33;79.80
20825;BME280;10573;50.936;6.978;2023-02-22T03:40:06;101010.94;;;7.31;79.99
20825;BME280;10573;50.936;6.978;2023-02-22T03:42:39;101009.69;;;7.24;80.15
20825;BME280;10573;50.936;6.978;2023-02-22T03:45:06;101007.97;;;7.34;79.47
20825;BME280;10573;50.936;6.978;2023-02-22T03:47:45;101005.69;;;7.17;80.01
20825;BME280;10573;50.936;6.978;2023-02-22T03:50:22;101002.28;;;7.26;79.73
20825;BME280;10573;50.936;6.978;2023-02-22T03:52:50;100996.66;;;7.41;79.58
20825;BME280;10573;50.936;6.978;2023-02-22T03:55:16;101001.81;;;7.32;79.67
20825;BME280;10573;50.936;6.978;2023-02-22T03:57:43;100995.91;;;7.38;79.70
20825;BME280;10573;50.936;6.978;2023-02-22T04:00:10;101001.69;;;7.34;79.87
20825;BME280;10573;50.936;6.978;2023-02-22T04:02:37;101004.28;;;7.35;79.43
20825;BME280;10573;50.936;6.978;2023-02-22T04:05:02;101007.13;;;7.34;79.51
20825;BME280;10573;50.936;6.978;2023-02-22T04:07:28;101006.09;;;7.23;79.75
20825;BME280;10573;50.936;6.978;2023-02-22T04:09:53;101003.25;;;7.25;79.68
20825;BME280;10573;50.936;6.978;2023-02-22T04:12:18;101002.78;;;7.31;79.40
20825;BME280;10573;50.936;6.978;2023-02-22T04:14:44;101006.72;;;7.27;79.74
20825;BME280;10573;50.936;6.978;2023-02-22T04:17:09;101003.50;;;7.22;79.26
20825;BME280;10573;50.936;6.978;2023-02-22T04:19:34;101005.47;;;7.20;79.39
20825;BME280;10573;50.936;6.978;2023-02-22T04:21:59;100998.56;;;7.16;79.18
20825;BME280;10573;50.936;6.978;2023-02-22T04:24:25;101004.28;;;7.00;79.71
20825;BME280;10573;50.936;6.978;2023-02-22T04:26:50;100997.28;;;7.09;79.96
20825;BME280;10573;50.936;6.978;2023-02-22T04:29:15;100994.69;;;7.07;79.27
20825;BME280;10573;50.936;6.978;2023-02-22T04:31:41;100997.06;;;7.12;79.77
20825;BME280;10573;50.936;6.978;2023-02-22T04:34:06;100993.38;;;7.13;79.66
20825;BME280;10573;50.936;6.978;2023-02-22T04:36:31;100990.13;;;7.08;78.76
20825;BME280;10573;50.936;6.978;2023-02-22T04:38:57;100988.44;;;7.07;79.64
20825;BME280;10573;50.936;6.978;2023-02-22T04:41:22;100998.31;;;7.19;79.05
20825;BME280;10573;50.936;6.978;2023-02-22T04:43:48;100993.75;;;7.19;78.63
20825;BME280;10573;50.936;6.978;2023-02-22T04:46:13;100992.13;;;7.05;79.55
20825;BME280;10573;50.936;6.978;2023-02-22T04:48:38;100992.28;;;6.91;79.62
20825;BME280;10573;50.936;6.978;2023-02-22T04:51:04;100993.31;;;7.01;79.64
20825;BME280;10573;50.936;6.978;2023-02-22T04:53:29;100983.72;;;6.97;79.86
20825;BME280;10573;50.936;6.978;2023-02-22T04:55:54;100988.34;;;6.95;79.31
20825;BME280;10573;50.936;6.978;2023-02-22T04:58:20;100986.81;;;7.04;78.93
20825;BME280;10573;50.936;6.978;2023-02-22T05:00:45;100978.00;;;7.13;79.07
20825;BME280;10573;50.936;6.978;2023-02-22T05:03:11;100981.28;;;7.05;79.28
20825;BME280;10573;50.936;6.978;2023-02-22T05:05:36;100992.13;;;7.05;79.21
20825;BME280;10573;50.936;6.978;2023-02-22T05:08:01;100979.22;;;6.85;79.85
20825;BME280;10573;50.936;6.978;2023-02-22T05:10:27;100990.63;;;7.01;79.57
20825;BME280;10573;50.936;6.978;2023-02-22T05:12:52;100976.97;;;7.03;78.63
20825;BME280;10573;50.936;6.978;2023-02-22T05:15:18;100976.09;;;7.02;79.54
20825;BME280;10573;50.936;6.978;2023-02-22T05:17:44;100974.81;;;6.95;79.32
20825;BME280;10573;50.936;6.978;2023-02-22T05:20:15;100975.59;;;6.97;79.44
20825;BME280;10573;50.936;6.978;2023-02-22T05:22:41;100972.28;;;6.81;79.32
20825;BME280;10573;50.936;6.978;2023-02-22T05:25:07;100971.38;;;6.93;79.24
20825;BME280;10573;50.936;6.978;2023-02-22T05:27:33;100969.19;;;6.98;79.29
20825;BME280;10573;50.936;6.978;2023-02-22T05:29:58;100968.94;;;7.01;79.39
20825;BME280;10573;50.936;6.978;2023-02-22T05:32:23;100963.78;;;6.98;79.04
20825;BME280;10573;50.936;6.978;2023-02-22T05:34:48;100964.38;;;7.02;78.51
20825;BME280;10573;50.936;6.978;2023-02-22T05:37:14;100964.34;;;6.91;79.25
20825;BME280;10573;50.936;6.978;2023-02-22T05:39:39;100954.09;;;6.83;79.45
20825;BME280;10573;50.936;6.978;2023-02-22T05:42:04;100967.38;;;6.86;79.37
20825;BME280;10573;50.936;6.978;2023-02-22T05:44:30;100955.81;;;6.84;79.40
20825;BME280;10573;50.936;6.978;2023-02-22T05:46:55;100958.00;;;6.79;79.59
20825;BME280;10573;50.936;6.978;2023-02-22T05:49:20;100956.34;;;6.89;79.47
20825;BME280;10573;50.936;6.978;2023-02-22T05:51:46;100953.63;;;6.89;78.85
20825;BME280;10573;50.936;6.978;2023-02-22T05:54:11;100954.63;;;6.99;79.00
20825;BME280;10573;50.936;6.978;2023-02-22T05:56:36;100948.72;;;6.94;78.95
20825;BME280;10573;50.936;6.978;2023-02-22T05:59:02;100940.59;;;6.94;78.81
20825;BME280;10573;50.936;6.978;2023-02-22T06:01:27;100942.09;;;6.98;78.81
20825;BME280;10573;50.936;6.978;2023-02-22T06:03:52;100939.59;;;6.95;78.79
20825;BME280;10573;50.936;6.978;2023-02-22T06:06:18;100941.72;;;6.92;78.76
20825;BME280;10573;50.936;6.978;2023-02-22T06:08:46;100944.00;;;7.09;78.40
20825;BME280;10573;50.936;6.978;2023-02-22T06:11:12;100945.78;;;6.97;78.55
20825;BME280;10573;50.936;6.978;2023-02-22T06:13:37;100938.91;;;7.04;77.94
20825;BME280;10573;50.936;6.978;2023-02-22T06:16:03;100939.16;;;7.01;78.14
20825;BME280;10573;50.936;6.978;2023-02-22T06:18:29;100937.88;;;6.94;78.38
20825;BME280;10573;50.936;6.978;2023-02-22T06:20:58;100942.09;;;6.98;78.28
20825;BME280;10573;50.936;6.978;2023-02-22T06:23:24;100938.63;;;6.96;78.28
20825;BME280;10573;50.936;6.978;2023-02-22T06:25:50;100936.16;;;6.93;78.06
20825;BME280;10573;50.936;6.978;2023-02-22T06:28:15;100937.38;;;6.89;78.09
20825;BME280;10573;50.936;6.978;2023-02-22T06:30:40;100938.19;;;7.02;78.08
20825;BME280;10573;50.936;6.978;2023-02-22T06:33:10;100937.38;;;6.89;78.13
20825;BME280;10573;50.936;6.978;2023-02-22T06:35:35;100935.50;;;6.78;78.32
20825;BME280;10573;50.936;6.978;2023-02-22T06:38:00;100932.06;;;6.87;78.09
20825;BME280;10573;50.936;6.978;2023-02-22T06:40:26;100931.78;;;6.79;78.12
20825;BME280;10573;50.936;6.978;2023-02-22T06:42:53;100936.34;;;6.79;78.65
20825;BME280;10573;50.936;6.978;2023-02-22T06:45:19;100937.16;;;6.92;78.12
20825;BME280;10573;50.936;6.978;2023-02-22T06:47:44;100948.22;;;6.89;78.10
20825;BME280;10573;50.936;6.978;2023-02-22T06:50:16;100940.81;;;6.91;77.62
20825;BME280;10573;50.936;6.978;2023-02-22T06:52:42;100937.88;;;6.94;78.02
20825;BME280;10573;50.936;6.978;2023-02-22T06:55:07;100934.31;;;6.94;77.67
20825;BME280;10573;50.936;6.978;2023-02-22T06:57:33;100940.38;;;6.97;77.54
20825;BME280;10573;50.936;6.978;2023-02-22T06:59:58;100938.19;;;7.02;77.27
20825;BME280;10573;50.936;6.978;2023-02-22T07:02:23;100940.19;;;7.12;76.70
20825;BME280;10573;50.936;6.978;2023-02-22T07:04:48;100940.31;;;7.21;76.71
20825;BME280;10573;50.936;6.978;2023-02-22T07:07:14;100940.94;;;7.25;76.69
20825;BME280;10573;50.936;6.978;2023-02-22T07:09:39;100946.09;;;7.17;76.75
20825;BME280;10573;50.936;6.978;2023-02-22T07:12:04;100938.59;;;7.32;76.02
20825;BME280;10573;50.936;6.978;2023-02-22T07:14:30;100943.56;;;7.38;75.60
20825;BME280;10573;50.936;6.978;2023-02-22T07:16:55;100937.78;;;7.43;75.79
20825;BME280;10573;50.936;6.978;2023-02-22T07:19:20;100936.56;;;7.47;75.50
20825;BME280;10573;50.936;6.978;2023-02-22T07:21:46;100930.19;;;7.59;75.50
20825;BME280;10573;50.936;6.978;2023-02-22T07:24:12;100936.41;;;7.37;75.73
20825;BME280;10573;50.936;6.978;2023-02-22T07:26:40;100934.13;;;7.55;75.52
20825;BME280;10573;50.936;6.978;2023-02-22T07:29:06;100931.16;;;7.58;75.17
20825;BME280;10573;50.936;6.978;2023-02-22T07:31:37;100926.22;;;7.63;74.92
20825;BME280;10573;50.936;6.978;2023-02-22T07:34:02;100933.88;;;7.81;74.28
20825;BME280;10573;50.936;6.978;2023-02-22T07:36:28;100928.22;;;7.72;74.82
20825;BME280;10573;50.936;6.978;2023-02-22T07:38:53;100922.91;;;7.82;74.45
20825;BME280;10573;50.936;6.978;2023-02-22T07:41:18;100923.78;;;7.94;75.10
20825;BME280;10573;50.936;6.978;2023-02-22T07:43:44;100920.94;;;7.96;75.10
20825;BME280;10573;50.936;6.978;2023-02-22T07:46:09;100915.38;;;8.09;74.29
20825;BME280;10573;50.936;6.978;2023-02-22T07:48:34;100922.78;;;8.18;74.13
20825;BME280;10573;50.936;6.978;2023-02-22T07:51:00;100916.81;;;8.35;73.40
20825;BME280;10573;50.936;6.978;2023-02-22T07:53:26;100906.13;;;8.11;74.38
20825;BME280;10573;50.936;6.978;2023-02-22T07:55:54;100912.47;;;8.44;73.59
20825;BME280;10573;50.936;6.978;2023-02-22T07:58:21;100907.63;;;8.59;72.83
20825;BME280;10573;50.936;6.978;2023-02-22T08:00:46;100904.56;;;8.85;72.40
20825;BME280;10573;50.936;6.978;2023-02-22T08:03:15;100904.53;;;8.96;71.78
20825;BME280;10573;50.936;6.978;2023-02-22T08:05:46;100905.09;;;8.79;71.67
20825;BME280;10573;50.936;6.978;2023-02-22T08:08:12;100907.53;;;8.93;71.57
20825;BME280;10573;50.936;6.978;2023-02-22T08:10:40;100907.28;;;9.17;71.23
20825;BME280;10573;50.936;6.978;2023-02-22T08:13:05;100904.66;;;9.16;70.96
20825;BME280;10573;50.936;6.978;2023-02-22T08:15:31;100899.72;;;9.52;70.17
20825;BME280;10573;50.936;6.978;2023-02-22T08:17:57;100899.22;;;9.58;69.94
20825;BME280;10573;50.936;6.978;2023-02-22T08:20:23;100896.16;;;9.82;69.83
20825;BME280;10573;50.936;6.978;2023-02-22T08:22:49;100894.09;;;9.65;69.87
20825;BME280;10573;50.936;6.978;2023-02-22T08:25:15;100892.03;;;9.88;69.70
20825;BME280;10573;50.936;6.978;2023-02-22T08:27:40;100892.41;;;10.14;68.78
20825;BME280;10573;50.936;6.978;2023-02-22T08:30:06;100891.41;;;10.15;68.27
20825;BME280;10573;50.936;6.978;2023-02-22T08:32:31;100892.78;;;10.40;67.32
20825;BME280;10573;50.936;6.978;2023-02-22T08:34:57;100891.47;;;10.35;67.93
20825;BME280;10573;50.936;6.978;2023-02-22T08:37:22;100891.38;;;10.56;66.74
20825;BME280;10573;50.936;6.978;2023-02-22T08:39:47;100891.09;;;10.79;67.04
20825;BME280;10573;50.936;6.978;2023-02-22T08:42:13;100890.97;;;11.00;66.04
20825;BME280;10573;50.936;6.978;2023-02-22T08:44:38;100883.06;;;10.87;65.72
20825;BME280;10573;50.936;6.978;2023-02-22T08:47:04;100885.94;;;10.66;66.25
20825;BME280;10573;50.936;6.978;2023-02-22T08:49:30;100885.38;;;11.01;65.63
20825;BME280;10573;50.936;6.978;2023-02-22T08:51:55;100875.31;;;11.02;65.38
20825;BME280;10573;50.936;6.978;2023-02-22T08:54:21;100874.59;;;11.10;65.53
20825;BME280;10573;50.936;6.978;2023-02-22T08:56:46;100871.44;;;11.04;65.01
20825;BME280;10573;50.936;6.978;2023-02-22T08:59:12;100871.84;;;11.10;65.10
20825;BME280;10573;50.936;6.978;2023-02-22T09:01:37;100872.56;;;11.02;65.62
20825;BME280;10573;50.936;6.978;2023-02-22T09:04:02;100871.16;;;10.98;65.63
20825;BME280;10573;50.936;6.978;2023-02-22T09:06:28;100869.31;;;10.79;66.26
20825;BME280;10573;50.936;6.978;2023-02-22T09:08:53;100864.97;;;11.05;65.63
20825;BME280;10573;50.936;6.978;2023-02-22T09:11:18;100864.38;;;11.12;65.92
20825;BME280;10573;50.936;6.978;2023-02-22T09:13:44;100855.19;;;11.13;67.53
20825;BME280;10573;50.936;6.978;2023-02-22T09:16:09;100856.81;;;11.53;65.42
20825;BME280;10573;50.936;6.978;2023-02-22T09:18:34;100856.16;;;11.31;65.14
20825;BME280;10573;50.936;6.978;2023-02-22T09:21:01;100850.75;;;11.21;65.27
20825;BME280;10573;50.936;6.978;2023-02-22T09:23:26;100854.06;;;11.05;65.69
20825;BME280;10573;50.936;6.978;2023-02-22T09:25:51;100859.09;;;11.00;66.42
20825;BME280;10573;50.936;6.978;2023-02-22T09:28:17;100851.91;;;11.19;65.82
20825;BME280;10573;50.936;6.978;2023-02-22T09:30:42;100847.91;;;11.03;65.81
20825;BME280;10573;50.936;6.978;2023-02-22T09:33:09;100854.75;;;11.27;65.41
20825;BME280;10573;50.936;6.978;2023-02-22T09:35:35;100852.72;;;11.39;64.88
20825;BME280;10573;50.936;6.978;2023-02-22T09:38:01;100852.44;;;11.32;64.00
20825;BME280;10573;50.936;6.978;2023-02-22T09:40:28;100855.59;;;11.37;64.60
20825;BME280;10573;50.936;6.978;2023-02-22T09:45:52;100844.69;;;11.37;65.07
20825;BME280;10573;50.936;6.978;2023-02-22T09:48:21;100848.13;;;11.30;65.25
20825;BME280;10573;50.936;6.978;2023-02-22T09:50:46;100851.03;;;11.28;65.42
20825;BME280;10573;50.936;6.978;2023-02-22T09:55:46;100846.91;;;11.52;64.14
20825;BME280;10573;50.936;6.978;2023-02-22T10:00:41;100840.63;;;11.41;63.52
20825;BME280;10573;50.936;6.978;2023-02-22T10:05:39;100833.59;;;11.77;62.33
20825;BME280;10573;50.936;6.978;2023-02-22T10:08:10;100822.25;;;12.09;61.75
20825;BME280;10573;50.936;6.978;2023-02-22T10:10:46;100818.19;;;12.13;61.37
20825;BME280;10573;50.936;6.978;2023-02-22T10:15:55;100823.22;;;12.36;60.72
20825;BME280;10573;50.936;6.978;2023-02-22T10:21:19;100819.13;;;12.58;59.20
20825;BME280;10573;50.936;6.978;2023-02-22T10:26:35;100820.88;;;12.41;59.36
20825;BME280;10573;50.936;6.978;2023-02-22T10:31:27;100819.72;;;12.44;59.04
20825;BME280;10573;50.936;6.978;2023-02-22T10:33:56;100814.06;;;12.81;58.81
20825;BME280;10573;50.936;6.978;2023-02-22T10:36:22;100812.34;;;12.62;58.85
20825;BME280;10573;50.936;6.978;2023-02-22T10:39:12;100808.53;;;12.99;58.30
20825;BME280;10573;50.936;6.978;2023-02-22T10:41:37;100803.72;;;13.19;57.78
20825;BME280;10573;50.936;6.978;2023-02-22T10:44:06;100801.69;;;13.21;57.32
20825;BME280;10573;50.936;6.978;2023-02-22T10:46:32;100800.94;;;13.37;56.84
20825;BME280;10573;50.936;6.978;2023-02-22T10:49:02;100798.38;;;13.09;57.21
20825;BME280;10573;50.936;6.978;2023-02-22T10:51:28;100791.31;;;13.59;56.92
20825;BME280;10573;50.936;6.978;2023-02-22T10:56:47;100788.03;;;13.56;55.72
20825;BME280;10573;50.936;6.978;2023-02-22T10:59:24;100785.00;;;13.59;56.05
20825;BME280;10573;50.936;6.978;2023-02-22T11:01:51;100788.31;;;13.79;56.03
20825;BME280;10573;50.936;6.978;2023-02-22T11:04:18;100779.53;;;14.10;54.86
20825;BME280;10573;50.936;6.978;2023-02-22T11:06:47;100772.16;;;14.19;54.43
20825;BME280;10573;50.936;6.978;2023-02-22T11:09:16;100770.78;;;14.23;54.01
20825;BME280;10573;50.936;6.978;2023-02-22T11:11:43;100772.53;;;14.40;53.62
20825;BME280;10573;50.936;6.978;2023-02-22T11:14:10;100770.00;;;14.72;52.74
20825;BME280;10573;50.936;6.978;2023-02-22T11:16:37;100766.75;;;14.68;53.00
20825;BME280;10573;50.936;6.978;2023-02-22T11:19:19;100769.13;;;14.80;52.71
20825;BME280;10573;50.936;6.978;2023-02-22T11:21:47;100766.06;;;14.83;52.65
20825;BME280;10573;50.936;6.978;2023-02-22T11:24:15;100765.00;;;15.00;51.81
20825;BME280;10573;50.936;6.978;2023-02-22T11:26:46;100757.50;;;14.77;51.69
20825;BME280;10573;50.936;6.978;2023-02-22T11:29:29;100754.19;;;14.90;51.70
20825;BME280;10573;50.936;6.978;2023-02-22T11:31:56;100754.03;;;14.84;51.57
20825;BME280;10573;50.936;6.978;2023-02-22T11:34:27;100746.47;;;15.02;51.55
20825;BME280;10573;50.936;6.978;2023-02-22T11:36:53;100744.31;;;15.37;50.84
20825;BME280;10573;50.936;6.978;2023-02-22T11:39:22;100750.22;;;15.57;49.69
20825;BME280;10573;50.936;6.978;2023-02-22T11:41:48;100737.09;;;15.44;49.50
20825;BME280;10573;50.936;6.978;2023-02-22T11:44:30;100731.84;;;15.66;49.41
20825;BME280;10573;50.936;6.978;2023-02-22T11:46:56;100723.72;;;15.81;48.69
20825;BME280;10573;50.936;6.978;2023-02-22T11:49:32;100725.47;;;15.74;48.71
20825;BME280;10573;50.936;6.978;2023-02-22T11:59:52;100725.91;;;15.86;48.51
20825;BME280;10573;50.936;6.978;2023-02-22T12:10:10;100713.13;;;16.01;47.18
20825;BME280;10573;50.936;6.978;2023-02-22T12:15:08;100716.53;;;16.50;46.13
20825;BME280;10573;50.936;6.978;2023-02-22T12:17:41;100713.31;;;16.61;45.58
20825;BME280;10573;50.936;6.978;2023-02-22T12:20:14;100714.59;;;16.73;44.82
20825;BME280;10573;50.936;6.978;2023-02-22T12:22:50;100715.06;;;17.00;43.81
20825;BME280;10573;50.936;6.978;2023-02-22T12:25:19;100711.50;;;17.66;43.51
20825;BME280;10573;50.936;6.978;2023-02-22T12:27:46;100709.91;;;17.12;43.13
20825;BME280;10573;50.936;6.978;2023-02-22T12:30:17;100706.50;;;17.76;42.30
20825;BME280;10573;50.936;6.978;2023-02-22T12:32:45;100707.69;;;17.67;42.56
20825;BME280;10573;50.936;6.978;2023-02-22T12:40:24;100698.34;;;17.32;43.23
20825;BME280;10573;50.936;6.978;2023-02-22T12:42:58;100705.84;;;17.23;43.20
20825;BME280;10573;50.936;6.978;2023-02-22T12:45:26;100704.94;;;17.52;42.87
20825;BME280;10573;50.936;6.978;2023-02-22T12:47:56;100707.63;;;17.45;43.04
20825;BME280;10573;50.936;6.978;2023-02-22T12:50:27;100706.09;;;17.43;43.49
20825;BME280;10573;50.936;6.978;2023-02-22T12:52:58;100708.88;;;17.28;43.36
20825;BME280;10573;50.936;6.978;2023-02-22T12:55:37;100706.00;;;17.36;43.08
20825;BME280;10573;50.936;6.978;2023-02-22T13:00:42;100702.91;;;16.71;44.79
20825;BME280;10573;50.936;6.978;2023-02-22T13:05:58;100703.94;;;16.70;45.00
20825;BME280;10573;50.936;6.978;2023-02-22T13:18:53;100693.69;;;17.02;45.37
20825;BME280;10573;50.936;6.978;2023-02-22T13:23:48;100701.53;;;16.90;45.40
20825;BME280;10573;50.936;6.978;2023-02-22T13:26:19;100691.91;;;17.24;45.00
20825;BME280;10573;50.936;6.978;2023-02-22T13:29:09;100691.97;;;17.31;45.11
20825;BME280;10573;50.936;6.978;2023-02-22T13:36:53;100685.97;;;18.37;42.62
20825;BME280;10573;50.936;6.978;2023-02-22T13:45:15;100663.97;;;21.05;37.52
20825;BME280;10573;50.936;6.978;2023-02-22T13:50:40;100660.97;;;22.04;34.82
20825;BME280;10573;50.936;6.978;2023-02-22T13:53:14;100657.91;;;22.69;35.36
20825;BME280;10573;50.936;6.978;2023-02-22T13:55:44;100656.53;;;22.28;34.99
20825;BME280;10573;50.936;6.978;2023-02-22T13:58:12;100661.22;;;22.59;34.24
20825;BME280;10573;50.936;6.978;2023-02-22T14:00:48;100662.47;;;22.32;34.23
20825;BME280;10573;50.936;6.978;2023-02-22T14:13:13;100671.66;;;20.62;37.56
20825;BME280;10573;50.936;6.978;2023-02-22T14:18:27;100672.34;;;19.69;38.75
20825;BME280;10573;50.936;6.978;2023-02-22T14:23:38;100665.69;;;19.43;40.37
20825;BME280;10573;50.936;6.978;2023-02-22T14:31:11;100664.78;;;19.98;39.89
20825;BME280;10573;50.936;6.978;2023-02-22T14:34:38;100663.09;;;19.90;39.97
20825;BME280;10573;50.936;6.978;2023-02-22T14:39:09;100663.41;;;19.67;39.70
20825;BME280;10573;50.936;6.978;2023-02-22T14:41:37;100659.28;;;20.18;39.71
20825;BME280;10573;50.936;6.978;2023-02-22T14:44:02;100659.94;;;20.67;38.76
20825;BME280;10573;50.936;6.978;2023-02-22T14:46:30;100657.63;;;20.64;38.63
20825;BME280;10573;50.936;6.978;2023-02-22T14:49:02;100654.19;;;20.89;37.74
20825;BME280;10573;50.936;6.978;2023-02-22T14:51:48;100657.09;;;21.21;37.05
20825;BME280;10573;50.936;6.978;2023-02-22T14:54:35;100658.91;;;21.54;36.77
20825;BME280;10573;50.936;6.978;2023-02-22T14:57:17;100654.44;;;22.23;35.57
20825;BME280;10573;50.936;6.978;2023-02-22T15:00:35;100653.97;;;22.26;35.56
20825;BME280;10573;50.936;6.978;2023-02-22T15:02:56;100651.34;;;21.74;36.53
20825;BME280;10573;50.936;6.978;2023-02-22T15:05:24;100655.88;;;21.62;37.04
20825;BME280;10573;50.936;6.978;2023-02-22T15:08:01;100656.28;;;21.00;37.97
20825;BME280;10573;50.936;6.978;2023-02-22T15:13:05;100654.63;;;20.19;39.29